Time;durP1;ratioP1;P1;durP2;ratioP2;P2;SDS_P1;SDS_P2;PMS_P1;PMS_P2;Temp;Humidity;BMP_temperature;BMP_pressure;BME280_temperature;BME280_humidity;BME280_pressure;Samples;Min_cycle;Max_cycle;Signal;HPM_P1;HPM_P2
2023/06/02 00:01:01;;;;;;;0.00;0.00;;;15.60;90.70;;;;;;5067402;28;20181;-62
2023/06/02 00:03:31;;;;;;;0.00;0.00;;;15.60;90.90;;;;;;5070656;28;20173;-62
2023/06/02 00:05:59;;;;;;;0.00;0.00;;;15.60;91.00;;;;;;5070076;28;20177;-62
2023/06/02 00:08:25;;;;;;;0.00;0.00;;;15.50;91.00;;;;;;5070650;28;20238;-62
2023/06/02 00:10:51;;;;;;;0.10;0.10;;;15.50;91.30;;;;;;5070179;28;20227;-62
2023/06/02 00:13:16;;;;;;;0.00;0.00;;;15.40;91.50;;;;;;5070436;28;20219;-62
2023/06/02 00:15:43;;;;;;;0.00;0.00;;;15.40;91.60;;;;;;5069840;28;20177;-62
2023/06/02 00:18:08;;;;;;;0.10;0.10;;;15.30;91.90;;;;;;5070703;28;20279;-62
2023/06/02 00:20:34;;;;;;;0.00;0.00;;;15.30;92.10;;;;;;5070347;28;20535;-62
2023/06/02 00:23:02;;;;;;;0.00;0.00;;;15.30;92.20;;;;;;5070023;28;20176;-62
2023/06/02 00:25:29;;;;;;;0.00;0.00;;;15.20;92.20;;;;;;5070172;28;20283;-63
2023/06/02 00:27:54;;;;;;;0.00;0.00;;;15.20;92.30;;;;;;5070228;28;20180;-63
2023/06/02 00:30:20;;;;;;;0.00;0.00;;;15.20;92.40;;;;;;5069787;28;20175;-63
2023/06/02 00:32:45;;;;;;;0.00;0.00;;;15.10;92.50;;;;;;5071572;28;20300;-63
2023/06/02 00:35:11;;;;;;;0.13;0.13;;;15.10;92.90;;;;;;5064431;28;20250;-63
2023/06/02 00:37:36;;;;;;;0.00;0.00;;;15.10;93.10;;;;;;5070713;28;20177;-63
2023/06/02 00:40:03;;;;;;;0.00;0.00;;;15.00;93.10;;;;;;5070489;28;20211;-62
2023/06/02 00:42:29;;;;;;;0.00;0.00;;;15.00;93.30;;;;;;5070872;28;20184;-62
2023/06/02 00:44:54;;;;;;;0.00;0.00;;;15.00;93.40;;;;;;5070218;28;20544;-63
2023/06/02 00:47:20;;;;;;;1.13;0.10;;;14.90;93.50;;;;;;5070824;28;20181;-63
2023/06/02 00:49:46;;;;;;;0.08;0.08;;;14.90;93.70;;;;;;5070549;28;20173;-63
2023/06/02 00:52:15;;;;;;;0.00;0.00;;;14.80;93.70;;;;;;5070536;28;20678;-62
2023/06/02 00:54:41;;;;;;;0.00;0.00;;;14.80;94.00;;;;;;5070468;28;20271;-62
2023/06/02 00:57:07;;;;;;;0.00;0.00;;;14.70;94.30;;;;;;5070490;28;20746;-63
2023/06/02 00:59:33;;;;;;;0.00;0.00;;;14.70;94.50;;;;;;5070687;28;20173;-62
2023/06/02 01:01:59;;;;;;;0.00;0.00;;;14.60;94.70;;;;;;5070321;28;20525;-62
2023/06/02 01:04:25;;;;;;;0.00;0.00;;;14.60;94.90;;;;;;5070146;28;20184;-62
2023/06/02 01:06:52;;;;;;;0.03;0.03;;;14.60;94.90;;;;;;5070050;28;20616;-62
2023/06/02 01:09:19;;;;;;;0.00;0.00;;;14.50;95.00;;;;;;5070130;28;20184;-62
2023/06/02 01:11:47;;;;;;;0.00;0.00;;;14.50;95.20;;;;;;5071712;28;20264;-62
2023/06/02 01:14:13;;;;;;;0.00;0.00;;;14.40;95.30;;;;;;5074169;28;20189;-62
2023/06/02 01:16:38;;;;;;;0.00;0.00;;;14.40;95.50;;;;;;5073895;28;20181;-62
2023/06/02 01:19:06;;;;;;;0.00;0.00;;;14.40;95.70;;;;;;5073406;28;20188;-62
2023/06/02 01:21:37;;;;;;;0.10;0.10;;;14.30;95.50;;;;;;5074297;28;20177;-63
2023/06/02 01:24:03;;;;;;;0.00;0.00;;;14.20;95.70;;;;;;5073846;28;20180;-62
2023/06/02 01:26:33;;;;;;;0.00;0.00;;;14.20;96.00;;;;;;5073707;28;20221;-62
2023/06/02 01:29:00;;;;;;;0.00;0.00;;;14.10;96.10;;;;;;5073102;28;20211;-62
2023/06/02 01:31:29;;;;;;;0.10;0.10;;;14.10;96.40;;;;;;5073833;28;20743;-62
2023/06/02 01:34:19;;;;;;;0.10;0.10;;;14.10;96.50;;;;;;5073249;28;20923;-62
2023/06/02 01:36:48;;;;;;;0.20;0.20;;;14.00;96.50;;;;;;5065549;28;20203;-63
2023/06/02 01:39:16;;;;;;;0.00;0.00;;;14.00;96.60;;;;;;5073845;28;20180;-62
2023/06/02 01:41:45;;;;;;;0.00;0.00;;;14.00;96.90;;;;;;5073539;28;20183;-63
2023/06/02 01:44:11;;;;;;;0.35;0.35;;;13.90;96.80;;;;;;5073412;28;20215;-63
2023/06/02 01:46:39;;;;;;;0.00;0.00;;;13.90;96.80;;;;;;5073303;28;20177;-63
2023/06/02 01:49:15;;;;;;;0.00;0.00;;;13.90;96.70;;;;;;5073060;28;20648;-62
2023/06/02 01:51:41;;;;;;;0.20;0.20;;;13.90;96.90;;;;;;5073861;28;20675;-63
2023/06/02 01:54:07;;;;;;;0.00;0.00;;;13.80;96.80;;;;;;5079422;28;20263;-62
2023/06/02 01:56:32;;;;;;;0.00;0.00;;;13.80;96.90;;;;;;5072373;28;20267;-63
2023/06/02 01:58:58;;;;;;;0.00;0.00;;;13.80;97.10;;;;;;5072289;28;20193;-63
2023/06/02 02:01:24;;;;;;;0.00;0.00;;;13.70;97.20;;;;;;5073168;28;20640;-63
2023/06/02 02:03:52;;;;;;;0.00;0.00;;;13.70;97.40;;;;;;5071947;28;20173;-62
2023/06/02 02:06:24;;;;;;;0.00;0.00;;;13.60;97.50;;;;;;5072553;28;20658;-62
2023/06/02 02:08:50;;;;;;;0.00;0.00;;;13.60;97.60;;;;;;5072858;28;20307;-62
2023/06/02 02:11:15;;;;;;;0.00;0.00;;;13.60;97.90;;;;;;5072997;28;20268;-62
2023/06/02 02:13:41;;;;;;;0.25;0.25;;;13.50;97.90;;;;;;5072788;28;20564;-61
2023/06/02 02:16:06;;;;;;;0.00;0.00;;;13.40;98.10;;;;;;5072541;28;20646;-61
2023/06/02 02:18:32;;;;;;;0.00;0.00;;;13.40;98.40;;;;;;5073212;28;20181;-61
2023/06/02 02:20:58;;;;;;;0.00;0.00;;;13.40;98.60;;;;;;5072235;28;20760;-61
2023/06/02 02:23:23;;;;;;;0.00;0.00;;;13.40;98.60;;;;;;5072501;28;20216;-61
2023/06/02 02:25:48;;;;;;;0.00;0.00;;;13.40;98.60;;;;;;5072322;28;20242;-61
2023/06/02 02:28:14;;;;;;;0.00;0.00;;;13.30;98.60;;;;;;5072762;28;20222;-61
2023/06/02 02:30:40;;;;;;;0.00;0.00;;;13.30;98.80;;;;;;5072653;28;20624;-61
2023/06/02 02:33:05;;;;;;;0.00;0.00;;;13.30;99.10;;;;;;5072808;28;20669;-61
2023/06/02 02:35:31;;;;;;;0.00;0.00;;;13.20;99.30;;;;;;5072920;28;20173;-61
2023/06/02 02:37:56;;;;;;;0.00;0.00;;;13.20;99.50;;;;;;5072745;28;20256;-61
2023/06/02 02:40:22;;;;;;;0.00;0.00;;;13.20;99.70;;;;;;5072785;28;20183;-61
2023/06/02 02:42:47;;;;;;;0.00;0.00;;;13.10;99.80;;;;;;5072216;28;20185;-63
2023/06/02 02:45:13;;;;;;;0.00;0.00;;;13.10;99.90;;;;;;5071541;28;20183;-63
2023/06/02 02:47:39;;;;;;;0.00;0.00;;;13.10;99.80;;;;;;5072676;28;20177;-63
2023/06/02 02:50:05;;;;;;;0.00;0.00;;;13.00;99.70;;;;;;5072607;28;20187;-63
2023/06/02 02:52:31;;;;;;;0.00;0.00;;;13.00;99.80;;;;;;5072310;28;20236;-63
2023/06/02 02:54:57;;;;;;;0.10;0.10;;;13.00;99.90;;;;;;5072145;28;20192;-61
2023/06/02 02:57:23;;;;;;;0.00;0.00;;;12.90;99.90;;;;;;5072269;28;20184;-61
2023/06/02 02:59:49;;;;;;;0.00;0.00;;;12.90;99.90;;;;;;5072426;28;20180;-61
2023/06/02 03:02:15;;;;;;;0.00;0.00;;;12.90;99.90;;;;;;5071300;28;20221;-61
2023/06/02 03:04:41;;;;;;;0.00;0.00;;;12.90;99.90;;;;;;5071788;28;20236;-61
2023/06/02 03:07:06;;;;;;;0.28;0.28;;;12.80;99.90;;;;;;5071953;28;20204;-61
2023/06/02 03:09:32;;;;;;;0.00;0.00;;;12.80;99.90;;;;;;5072285;28;20180;-61
2023/06/02 03:11:57;;;;;;;0.00;0.00;;;12.80;99.90;;;;;;5071712;28;20623;-61
2023/06/02 03:14:26;;;;;;;0.00;0.00;;;12.70;99.90;;;;;;5072028;28;20189;-62
2023/06/02 03:16:52;;;;;;;0.00;0.00;;;12.70;99.90;;;;;;5071836;28;20657;-62
2023/06/02 03:19:17;;;;;;;0.00;0.00;;;12.70;99.90;;;;;;5071570;28;20271;-62
2023/06/02 03:21:44;;;;;;;0.00;0.00;;;12.70;99.90;;;;;;5071450;28;20260;-62
2023/06/02 03:24:11;;;;;;;0.00;0.00;;;12.60;99.90;;;;;;5071009;28;20173;-62
2023/06/02 03:26:40;;;;;;;0.00;0.00;;;12.60;99.90;;;;;;5070833;28;20262;-62
2023/06/02 03:29:07;;;;;;;0.15;0.15;;;12.50;99.90;;;;;;5071345;28;20189;-62
2023/06/02 03:31:33;;;;;;;0.08;0.08;;;12.50;99.90;;;;;;5071640;28;20632;-61
2023/06/02 03:33:58;;;;;;;0.00;0.00;;;12.50;99.90;;;;;;5071049;28;20231;-62
2023/06/02 03:36:25;;;;;;;0.00;0.00;;;12.60;99.90;;;;;;5071770;28;20694;-61
2023/06/02 03:38:51;;;;;;;0.00;0.00;;;12.50;99.90;;;;;;5071586;28;20177;-62
2023/06/02 03:41:16;;;;;;;0.00;0.00;;;12.50;99.90;;;;;;5071789;28;20176;-61
2023/06/02 03:43:42;;;;;;;0.05;0.05;;;12.50;99.90;;;;;;5071519;28;20222;-62
2023/06/02 03:46:08;;;;;;;0.00;0.00;;;12.50;99.90;;;;;;5070608;28;20172;-61
2023/06/02 03:48:33;;;;;;;0.00;0.00;;;12.50;99.90;;;;;;5071644;28;20248;-62
2023/06/02 03:50:59;;;;;;;0.08;0.08;;;12.50;99.90;;;;;;5072310;28;20188;-62
2023/06/02 03:53:24;;;;;;;0.00;0.00;;;12.50;99.90;;;;;;5075014;28;20211;-61
2023/06/02 03:55:50;;;;;;;0.00;0.00;;;12.50;99.90;;;;;;5070573;28;20161;-59
2023/06/02 03:58:15;;;;;;;0.00;0.00;;;12.50;99.90;;;;;;5070525;28;20184;-58
2023/06/02 04:00:42;;;;;;;0.00;0.00;;;12.50;99.90;;;;;;5069598;28;20180;-59
2023/06/02 04:03:09;;;;;;;0.00;0.00;;;12.50;99.90;;;;;;5070979;28;20173;-58
2023/06/02 04:05:35;;;;;;;0.00;0.00;;;12.50;99.90;;;;;;5069875;28;20173;-59
2023/06/02 04:08:00;;;;;;;0.10;0.10;;;12.50;99.90;;;;;;5070553;28;20268;-60
2023/06/02 04:10:28;;;;;;;0.00;0.00;;;12.60;99.90;;;;;;5070847;28;20164;-60
2023/06/02 04:12:53;;;;;;;0.13;0.10;;;12.60;99.90;;;;;;5070552;28;20204;-60
2023/06/02 04:15:19;;;;;;;0.00;0.00;;;12.60;99.90;;;;;;5070775;28;20191;-61
2023/06/02 04:17:44;;;;;;;0.00;0.00;;;12.70;99.90;;;;;;5070305;28;20222;-60
2023/06/02 04:20:12;;;;;;;0.00;0.00;;;12.70;99.90;;;;;;5070394;28;20267;-60
2023/06/02 04:22:37;;;;;;;0.00;0.00;;;12.90;99.90;;;;;;5070594;28;20165;-59
2023/06/02 04:25:03;;;;;;;0.00;0.00;;;13.10;99.90;;;;;;5069973;28;20192;-60
2023/06/02 04:27:29;;;;;;;0.00;0.00;;;13.30;99.90;;;;;;5070709;28;20168;-60
2023/06/02 04:29:54;;;;;;;0.00;0.00;;;13.50;99.90;;;;;;5070697;28;20620;-59
2023/06/02 04:32:20;;;;;;;0.00;0.00;;;13.80;99.90;;;;;;5070556;28;20211;-59
2023/06/02 04:34:46;;;;;;;0.08;0.08;;;14.10;99.90;;;;;;5070572;28;20199;-59
2023/06/02 04:37:12;;;;;;;0.00;0.00;;;14.40;99.90;;;;;;5070590;28;20256;-59
2023/06/02 04:39:37;;;;;;;0.00;0.00;;;14.80;99.60;;;;;;5070757;28;20187;-59
2023/06/02 04:42:03;;;;;;;0.00;0.00;;;15.10;99.00;;;;;;5070513;28;20165;-59
2023/06/02 04:44:29;;;;;;;0.00;0.00;;;15.40;98.10;;;;;;5070557;28;20653;-60
2023/06/02 04:46:55;;;;;;;0.00;0.00;;;15.70;97.50;;;;;;5070053;28;20548;-60
2023/06/02 04:49:21;;;;;;;0.10;0.10;;;16.00;97.00;;;;;;5070288;28;20169;-59
2023/06/02 04:51:46;;;;;;;0.00;0.00;;;16.30;96.60;;;;;;5070242;28;20191;-59
2023/06/02 04:54:14;;;;;;;0.00;0.00;;;16.70;96.00;;;;;;5070471;28;20223;-59
2023/06/02 04:56:40;;;;;;;0.00;0.00;;;17.00;95.20;;;;;;5070462;28;20532;-60
2023/06/02 04:59:05;;;;;;;0.00;0.00;;;17.40;94.60;;;;;;5070062;28;20199;-59
2023/06/02 05:01:31;;;;;;;0.00;0.00;;;17.60;93.70;;;;;;5070220;28;20179;-60
2023/06/02 05:03:56;;;;;;;0.00;0.00;;;17.90;93.10;;;;;;5070286;28;20181;-59
2023/06/02 05:06:22;;;;;;;0.00;0.00;;;18.10;92.60;;;;;;5070358;28;20196;-60
2023/06/02 05:08:47;;;;;;;0.00;0.00;;;18.40;91.80;;;;;;5070541;28;20181;-60
2023/06/02 05:11:13;;;;;;;0.10;0.10;;;18.60;91.60;;;;;;5070394;28;20632;-60
2023/06/02 05:13:38;;;;;;;0.00;0.00;;;18.90;91.00;;;;;;5070402;28;20217;-60
2023/06/02 05:16:04;;;;;;;0.00;0.00;;;19.10;90.40;;;;;;5070408;28;20207;-60
2023/06/02 05:18:30;;;;;;;0.00;0.00;;;19.30;90.30;;;;;;5070063;28;20204;-60
2023/06/02 05:20:55;;;;;;;0.00;0.00;;;19.50;90.00;;;;;;5069433;28;20173;-60
2023/06/02 05:23:21;;;;;;;0.00;0.00;;;19.60;89.20;;;;;;5070017;28;20184;-59
2023/06/02 05:25:49;;;;;;;0.00;0.00;;;19.90;88.70;;;;;;5070043;28;20635;-59
2023/06/02 05:28:15;;;;;;;0.00;0.00;;;20.20;87.70;;;;;;5070301;28;20188;-60
2023/06/02 05:30:41;;;;;;;0.00;0.00;;;20.50;87.00;;;;;;5070325;28;20533;-60
2023/06/02 05:33:06;;;;;;;0.10;0.10;;;20.80;85.40;;;;;;5070167;28;20208;-60
2023/06/02 05:35:32;;;;;;;0.00;0.00;;;21.10;84.00;;;;;;5070279;28;20176;-60
2023/06/02 05:37:57;;;;;;;0.00;0.00;;;21.40;83.10;;;;;;5070264;28;20173;-60
2023/06/02 05:40:23;;;;;;;0.00;0.00;;;21.80;81.40;;;;;;5070185;28;20173;-59
2023/06/02 05:42:48;;;;;;;0.00;0.00;;;22.10;80.10;;;;;;5070172;28;20184;-59
2023/06/02 05:45:14;;;;;;;0.00;0.00;;;22.30;79.20;;;;;;5070140;28;20192;-60
2023/06/02 05:47:39;;;;;;;0.00;0.00;;;22.60;78.10;;;;;;5070145;28;20203;-60
2023/06/02 05:50:05;;;;;;;0.03;0.03;;;23.00;76.00;;;;;;5070161;28;20639;-59
2023/06/02 05:52:31;;;;;;;0.00;0.00;;;23.10;73.90;;;;;;5069672;28;20213;-59
2023/06/02 05:54:56;;;;;;;0.00;0.00;;;23.20;72.90;;;;;;5070032;28;20275;-59
2023/06/02 05:57:22;;;;;;;0.00;0.00;;;23.30;72.10;;;;;;5069933;28;20259;-59
2023/06/02 05:59:47;;;;;;;0.00;0.00;;;23.40;71.20;;;;;;5073207;28;20173;-59
2023/06/02 06:02:13;;;;;;;0.00;0.00;;;23.60;70.50;;;;;;5073532;28;20214;-59
2023/06/02 06:04:39;;;;;;;0.00;0.00;;;23.50;70.00;;;;;;5073297;28;20644;-59
2023/06/02 06:07:05;;;;;;;0.00;0.00;;;23.50;70.10;;;;;;5073394;28;20176;-59
2023/06/02 06:09:31;;;;;;;0.00;0.00;;;23.50;70.30;;;;;;5071940;28;20548;-59
2023/06/02 06:11:56;;;;;;;0.13;0.13;;;23.80;69.60;;;;;;5073176;28;20169;-59
2023/06/02 06:14:22;;;;;;;0.00;0.00;;;23.90;68.30;;;;;;5073278;28;20185;-59
2023/06/02 06:16:47;;;;;;;0.00;0.00;;;23.80;68.40;;;;;;5073237;28;20214;-59
2023/06/02 06:19:13;;;;;;;0.00;0.00;;;23.80;68.50;;;;;;5073289;28;20234;-59
2023/06/02 06:21:39;;;;;;;0.00;0.00;;;23.90;67.90;;;;;;5073146;28;20177;-59
2023/06/02 06:24:07;;;;;;;0.00;0.00;;;24.20;67.50;;;;;;5073327;28;20165;-59
2023/06/02 06:26:33;;;;;;;0.00;0.00;;;24.60;66.80;;;;;;5072887;28;20707;-59
2023/06/02 06:28:59;;;;;;;0.00;0.00;;;25.00;65.70;;;;;;5073038;28;20180;-59
2023/06/02 06:31:25;;;;;;;0.00;0.00;;;25.30;65.00;;;;;;5073110;28;20180;-59
2023/06/02 06:33:51;;;;;;;0.00;0.00;;;25.50;63.50;;;;;;5072939;28;21157;-59
2023/06/02 06:36:16;;;;;;;0.00;0.00;;;25.70;63.00;;;;;;5073116;28;20311;-59
2023/06/02 06:38:42;;;;;;;0.00;0.00;;;25.90;62.30;;;;;;5072872;28;20173;-59
2023/06/02 06:41:07;;;;;;;0.00;0.00;;;25.90;62.10;;;;;;5072994;28;20244;-59
2023/06/02 06:43:33;;;;;;;0.00;0.00;;;26.00;61.20;;;;;;5072732;28;20533;-59
2023/06/02 06:46:01;;;;;;;0.00;0.00;;;26.10;60.80;;;;;;5072571;28;20180;-59
2023/06/02 06:48:27;;;;;;;0.00;0.00;;;26.00;59.90;;;;;;5072701;28;20192;-59
2023/06/02 06:50:53;;;;;;;0.10;0.10;;;25.70;60.70;;;;;;5072505;28;20809;-59
2023/06/02 06:53:19;;;;;;;0.00;0.00;;;25.90;60.70;;;;;;5072598;28;20216;-59
2023/06/02 06:55:45;;;;;;;0.00;0.00;;;26.00;60.50;;;;;;5072523;28;20173;-59
2023/06/02 06:58:10;;;;;;;0.00;0.00;;;26.10;60.10;;;;;;5071329;28;20176;-59
2023/06/02 07:00:37;;;;;;;0.00;0.00;;;26.20;59.60;;;;;;5072653;28;20187;-59
2023/06/02 07:03:03;;;;;;;0.00;0.00;;;26.20;59.80;;;;;;5072649;28;20267;-59
2023/06/02 07:05:28;;;;;;;0.00;0.00;;;26.50;59.80;;;;;;5072674;28;20260;-59
2023/06/02 07:07:54;;;;;;;0.00;0.00;;;26.90;58.40;;;;;;5072489;28;20256;-59
2023/06/02 07:10:20;;;;;;;0.00;0.00;;;27.20;57.80;;;;;;5072467;28;20571;-60
2023/06/02 07:12:45;;;;;;;0.00;0.00;;;27.30;57.90;;;;;;5072414;28;20774;-60
2023/06/02 07:15:11;;;;;;;0.00;0.00;;;27.80;57.00;;;;;;5072491;28;20185;-60
2023/06/02 07:17:39;;;;;;;0.00;0.00;;;28.30;55.60;;;;;;5072539;28;20157;-60
2023/06/02 07:20:05;;;;;;;0.00;0.00;;;28.50;55.10;;;;;;5072450;28;20647;-60
2023/06/02 07:22:30;;;;;;;0.00;0.00;;;28.60;54.40;;;;;;5072486;28;20502;-59
2023/06/02 07:24:56;;;;;;;0.00;0.00;;;28.50;53.70;;;;;;5071977;28;20219;-60
2023/06/02 07:27:21;;;;;;;0.00;0.00;;;28.20;54.30;;;;;;5072360;28;20185;-60
2023/06/02 07:29:47;;;;;;;0.00;0.00;;;28.00;54.10;;;;;;5072194;28;20165;-59
2023/06/02 07:32:12;;;;;;;0.00;0.00;;;28.00;55.50;;;;;;5072077;28;20212;-59
2023/06/02 07:34:39;;;;;;;0.00;0.00;;;28.10;54.80;;;;;;5072116;28;20610;-59
2023/06/02 07:37:05;;;;;;;0.00;0.00;;;28.30;54.10;;;;;;5072106;28;20169;-59
2023/06/02 07:39:30;;;;;;;0.00;0.00;;;28.30;54.40;;;;;;5071967;28;20697;-59
2023/06/02 07:41:56;;;;;;;0.00;0.00;;;28.60;54.70;;;;;;5072056;28;20199;-59
2023/06/02 07:44:21;;;;;;;0.00;0.00;;;28.90;54.40;;;;;;5071923;28;20969;-60
2023/06/02 07:46:47;;;;;;;0.00;0.00;;;29.30;53.40;;;;;;5071916;28;20678;-60
2023/06/02 07:49:13;;;;;;;0.00;0.00;;;29.50;52.80;;;;;;5071780;28;20554;-60
2023/06/02 07:51:39;;;;;;;0.00;0.00;;;29.70;52.60;;;;;;5071841;28;20230;-60
2023/06/02 07:54:05;;;;;;;0.00;0.00;;;29.50;51.60;;;;;;5071600;28;20220;-60
2023/06/02 07:56:30;;;;;;;0.00;0.00;;;29.40;52.60;;;;;;5070549;28;21137;-60
2023/06/02 07:58:56;;;;;;;0.00;0.00;;;29.50;52.10;;;;;;5071541;28;20647;-59
2023/06/02 08:01:21;;;;;;;0.00;0.00;;;29.40;52.40;;;;;;5071746;28;20211;-60
2023/06/02 08:03:47;;;;;;;0.20;0.20;;;29.50;52.50;;;;;;5071292;28;20248;-59
2023/06/02 08:06:13;;;;;;;0.00;0.00;;;29.30;52.10;;;;;;5071489;28;20670;-60
2023/06/02 08:08:39;;;;;;;0.00;0.00;;;28.70;51.80;;;;;;5071489;28;20636;-60
2023/06/02 08:11:05;;;;;;;0.00;0.00;;;28.00;52.80;;;;;;5071646;28;20183;-59
2023/06/02 08:13:30;;;;;;;0.00;0.00;;;27.30;53.80;;;;;;5071374;28;20657;-59
2023/06/02 08:15:56;;;;;;;0.05;0.05;;;27.00;54.70;;;;;;5071221;28;20169;-59
2023/06/02 08:18:21;;;;;;;0.00;0.00;;;27.00;55.50;;;;;;5071421;28;20504;-60
2023/06/02 08:20:47;;;;;;;0.00;0.00;;;27.30;56.30;;;;;;5070815;28;20223;-59
2023/06/02 08:23:12;;;;;;;0.00;0.00;;;27.80;55.40;;;;;;5071304;28;20187;-59
2023/06/02 08:25:39;;;;;;;0.00;0.00;;;27.50;54.10;;;;;;5071176;28;20222;-59
2023/06/02 08:28:09;;;;;;;0.00;0.00;;;27.20;54.40;;;;;;5071149;28;20639;-59
2023/06/02 08:30:36;;;;;;;0.00;0.00;;;26.90;54.80;;;;;;5071234;28;20199;-60
2023/06/02 08:33:03;;;;;;;0.00;0.00;;;26.60;55.50;;;;;;5070990;28;20663;-59
2023/06/02 08:35:32;;;;;;;0.00;0.00;;;26.60;55.30;;;;;;5071156;28;20517;-60
2023/06/02 08:38:03;;;;;;;0.08;0.08;;;26.60;57.20;;;;;;5071059;28;20229;-59
2023/06/02 08:40:36;;;;;;;0.03;0.03;;;26.80;55.80;;;;;;5071232;28;20180;-59
2023/06/02 08:43:04;;;;;;;0.00;0.00;;;26.60;56.00;;;;;;5071087;28;20173;-59
2023/06/02 08:45:29;;;;;;;0.00;0.00;;;26.70;56.30;;;;;;5071092;28;20698;-59
2023/06/02 08:47:57;;;;;;;0.00;0.00;;;26.70;55.30;;;;;;5070934;28;20181;-59
2023/06/02 08:50:26;;;;;;;0.00;0.00;;;26.50;55.90;;;;;;5071031;28;20258;-59
2023/06/02 08:52:55;;;;;;;0.22;0.22;;;26.50;56.20;;;;;;5070671;28;20307;-59
2023/06/02 08:55:22;;;;;;;0.00;0.00;;;26.50;55.70;;;;;;5071113;28;20172;-59
2023/06/02 08:57:47;;;;;;;0.00;0.00;;;26.70;56.60;;;;;;5070820;28;20208;-59
2023/06/02 09:00:14;;;;;;;0.00;0.00;;;27.00;56.80;;;;;;5070862;28;20165;-59
2023/06/02 09:02:39;;;;;;;0.00;0.00;;;27.20;55.10;;;;;;5070989;28;20204;-60
2023/06/02 09:05:06;;;;;;;0.00;0.00;;;27.20;55.10;;;;;;5070670;28;20651;-60
2023/06/02 09:07:32;;;;;;;0.00;0.00;;;27.40;54.20;;;;;;5070818;28;20184;-59
2023/06/02 09:09:58;;;;;;;0.00;0.00;;;27.30;54.60;;;;;;5070762;28;20177;-59
2023/06/02 09:12:23;;;;;;;0.00;0.00;;;27.50;54.60;;;;;;5070825;28;20204;-59
2023/06/02 09:15:10;;;;;;;0.00;0.00;;;27.80;55.10;;;;;;5070668;28;20509;-59
2023/06/02 09:17:35;;;;;;;0.00;0.00;;;28.10;53.90;;;;;;5070841;28;20175;-60
2023/06/02 09:20:08;;;;;;;0.00;0.00;;;28.40;54.70;;;;;;5070660;28;20185;-60
2023/06/02 09:22:33;;;;;;;0.00;0.00;;;28.60;52.90;;;;;;5070721;28;20185;-60
2023/06/02 09:24:59;;;;;;;0.00;0.00;;;28.70;53.40;;;;;;5070390;28;20636;-60
2023/06/02 09:27:25;;;;;;;0.00;0.00;;;28.80;52.10;;;;;;5070792;28;20173;-59
2023/06/02 09:29:59;;;;;;;0.00;0.00;;;28.60;52.30;;;;;;5070479;28;20181;-59
2023/06/02 09:32:24;;;;;;;0.00;0.00;;;28.20;53.10;;;;;;5071920;28;20212;-59
2023/06/02 09:34:50;;;;;;;0.00;0.00;;;28.00;53.20;;;;;;5074310;28;20632;-59
2023/06/02 09:37:17;;;;;;;0.00;0.00;;;27.90;53.40;;;;;;5074431;28;20185;-59
2023/06/02 09:39:49;;;;;;;0.00;0.00;;;27.50;53.60;;;;;;5074277;28;20173;-59
2023/06/02 09:42:15;;;;;;;0.00;0.00;;;27.50;54.60;;;;;;5074236;28;20177;-60
2023/06/02 09:45:02;;;;;;;0.00;0.00;;;27.60;54.90;;;;;;5074209;28;20180;-60
2023/06/02 09:47:28;;;;;;;0.00;0.00;;;27.90;54.40;;;;;;5074178;28;20786;-59
2023/06/02 09:49:54;;;;;;;0.00;0.00;;;28.10;53.50;;;;;;5074132;28;20271;-60
2023/06/02 09:52:19;;;;;;;0.00;0.00;;;28.10;53.30;;;;;;5073948;28;20176;-60
2023/06/02 09:54:47;;;;;;;0.00;0.00;;;28.10;54.70;;;;;;5074058;28;20196;-60
2023/06/02 09:57:13;;;;;;;0.00;0.00;;;28.10;54.90;;;;;;5073863;28;20180;-60
2023/06/02 09:59:40;;;;;;;0.00;0.00;;;28.30;55.20;;;;;;5073832;28;20530;-60
2023/06/02 10:02:09;;;;;;;0.00;0.00;;;28.40;54.50;;;;;;5073945;28;20647;-60
2023/06/02 10:04:34;;;;;;;0.00;0.00;;;28.60;52.60;;;;;;5073697;28;20176;-60
2023/06/02 10:07:10;;;;;;;0.00;0.00;;;28.80;51.40;;;;;;5073700;28;20578;-60
2023/06/02 10:09:52;;;;;;;0.00;0.00;;;28.70;51.20;;;;;;5073915;28;20639;-60
2023/06/02 10:12:42;;;;;;;0.00;0.00;;;28.70;51.70;;;;;;5073869;28;20185;-59
2023/06/02 10:15:26;;;;;;;0.00;0.00;;;28.70;51.80;;;;;;5073751;28;20246;-60
2023/06/02 10:18:28;;;;;;;0.20;0.20;;;28.90;51.50;;;;;;5073506;28;20538;-59
2023/06/02 10:20:59;;;;;;;0.20;0.00;;;28.70;52.10;;;;;;5073538;28;20168;-59
2023/06/02 10:23:57;;;;;;;0.00;0.00;;;28.50;51.60;;;;;;5073717;28;20165;-59
2023/06/02 10:26:50;;;;;;;0.00;0.00;;;28.40;52.90;;;;;;5073494;28;20231;-59
2023/06/02 10:29:16;;;;;;;0.00;0.00;;;28.30;51.10;;;;;;5073592;28;20593;-60
2023/06/02 10:31:44;;;;;;;0.00;0.00;;;28.10;51.70;;;;;;5073298;28;20161;-60
2023/06/02 10:34:36;;;;;;;0.00;0.00;;;28.30;52.00;;;;;;5073221;28;20220;-59
2023/06/02 10:37:04;;;;;;;0.00;0.00;;;28.40;51.90;;;;;;5073285;28;20173;-59
2023/06/02 10:39:58;;;;;;;0.00;0.00;;;28.10;51.20;;;;;;5073089;28;20583;-59
2023/06/02 10:42:25;;;;;;;0.00;0.00;;;27.80;51.30;;;;;;5073319;28;20223;-59
2023/06/02 10:44:52;;;;;;;0.00;0.00;;;27.60;52.30;;;;;;5072310;28;20583;-59
2023/06/02 10:47:17;;;;;;;0.03;0.00;;;27.30;53.40;;;;;;5073184;28;20214;-60
2023/06/02 10:50:10;;;;;;;0.00;0.00;;;27.30;53.90;;;;;;5072957;28;20185;-60
2023/06/02 10:53:00;;;;;;;0.00;0.00;;;27.70;52.70;;;;;;5070862;28;20304;-60
2023/06/02 10:55:28;;;;;;;0.00;0.00;;;28.10;52.50;;;;;;5072958;28;20181;-60
2023/06/02 10:57:58;;;;;;;0.00;0.00;;;28.20;51.70;;;;;;5072566;28;20253;-60
2023/06/02 11:00:32;;;;;;;0.00;0.00;;;28.30;51.40;;;;;;5072827;28;20177;-60
2023/06/02 11:03:20;;;;;;;0.00;0.00;;;28.50;52.70;;;;;;5072727;28;20172;-60
2023/06/02 11:05:47;;;;;;;0.00;0.00;;;28.60;52.60;;;;;;5048762;28;20304;-60
2023/06/02 11:08:17;;;;;;;0.00;0.00;;;28.90;51.70;;;;;;5052672;28;20177;-60
2023/06/02 11:10:55;;;;;;;0.00;0.00;;;29.00;51.20;;;;;;5052612;28;20537;-60
2023/06/02 11:13:25;;;;;;;0.10;0.00;;;29.20;51.00;;;;;;5052619;28;20220;-60
2023/06/02 11:15:58;;;;;;;0.00;0.00;;;29.30;50.10;;;;;;5052442;28;20276;-60
2023/06/02 11:18:25;;;;;;;0.00;0.00;;;29.30;50.30;;;;;;5052623;28;20174;-60
2023/06/02 11:20:55;;;;;;;0.10;0.10;;;29.20;50.30;;;;;;5052322;28;20181;-60
2023/06/02 11:23:22;;;;;;;0.10;0.10;;;28.90;49.40;;;;;;5052545;28;20191;-60
2023/06/02 11:25:50;;;;;;;0.00;0.00;;;28.40;50.60;;;;;;5050910;28;20633;-60
2023/06/02 11:28:22;;;;;;;0.00;0.00;;;28.50;51.70;;;;;;5052350;28;20238;-60
2023/06/02 11:31:07;;;;;;;0.00;0.00;;;28.70;50.50;;;;;;5052263;28;20169;-60
2023/06/02 11:33:34;;;;;;;0.00;0.00;;;28.80;49.70;;;;;;5052163;28;20205;-59
2023/06/02 11:36:00;;;;;;;0.00;0.00;;;28.60;48.90;;;;;;5052078;28;20643;-60
2023/06/02 11:38:32;;;;;;;0.00;0.00;;;28.30;49.30;;;;;;5052172;28;20256;-60
2023/06/02 11:41:11;;;;;;;0.00;0.00;;;28.20;50.50;;;;;;5051936;28;20644;-60
2023/06/02 11:43:38;;;;;;;0.00;0.00;;;28.20;50.90;;;;;;5052047;28;20174;-60
2023/06/02 11:46:08;;;;;;;0.00;0.00;;;28.20;51.80;;;;;;5050697;28;20530;-61
2023/06/02 11:48:38;;;;;;;0.00;0.00;;;28.30;52.60;;;;;;5051914;28;20188;-59
2023/06/02 11:51:12;;;;;;;0.00;0.00;;;28.40;50.90;;;;;;5051805;28;20706;-60
2023/06/02 11:53:44;;;;;;;0.00;0.00;;;28.40;49.20;;;;;;5067841;28;20223;-60
2023/06/02 11:56:10;;;;;;;0.00;0.00;;;28.60;49.70;;;;;;5070693;28;20184;-59
2023/06/02 11:58:48;;;;;;;0.15;0.15;;;28.40;49.20;;;;;;5071661;28;20200;-59
2023/06/02 12:01:18;;;;;;;0.05;0.05;;;28.20;49.80;;;;;;5071636;28;20186;-59
2023/06/02 12:04:05;;;;;;;0.00;0.00;;;27.90;50.00;;;;;;5071615;28;20206;-59
2023/06/02 12:06:45;;;;;;;0.05;0.05;;;27.70;51.50;;;;;;5071619;28;20234;-60
2023/06/02 12:09:12;;;;;;;0.00;0.00;;;27.80;50.90;;;;;;5071512;28;20976;-60
2023/06/02 12:11:38;;;;;;;0.00;0.00;;;27.90;52.00;;;;;;5071521;28;20302;-60
2023/06/02 12:14:06;;;;;;;0.00;0.00;;;27.90;51.70;;;;;;5071405;28;20220;-60
2023/06/02 12:16:34;;;;;;;0.00;0.00;;;28.10;50.70;;;;;;5071288;28;20208;-60
2023/06/02 12:19:19;;;;;;;0.00;0.00;;;28.00;48.90;;;;;;5071294;28;20215;-60
2023/06/02 12:21:46;;;;;;;0.00;0.00;;;27.80;50.10;;;;;;5071311;28;20661;-59
2023/06/02 12:24:28;;;;;;;0.00;0.00;;;27.70;52.20;;;;;;5071281;28;20179;-59
2023/06/02 12:26:53;;;;;;;0.00;0.00;;;27.90;51.80;;;;;;5071070;28;20307;-60
2023/06/02 12:29:19;;;;;;;0.00;0.00;;;27.90;51.10;;;;;;5071303;28;20259;-59
2023/06/02 12:31:45;;;;;;;0.00;0.00;;;27.90;51.10;;;;;;5071462;28;20173;-59
2023/06/02 12:34:10;;;;;;;0.00;0.00;;;27.80;51.70;;;;;;5071165;28;20359;-60
2023/06/02 12:36:37;;;;;;;0.00;0.00;;;27.90;52.50;;;;;;5071079;28;20179;-59
2023/06/02 12:39:04;;;;;;;0.00;0.00;;;27.80;52.30;;;;;;5071036;28;20185;-59
2023/06/02 12:41:30;;;;;;;0.00;0.00;;;27.90;51.70;;;;;;5071159;28;20235;-60
2023/06/02 12:43:56;;;;;;;0.00;0.00;;;28.10;50.80;;;;;;5070843;28;20184;-60
2023/06/02 12:46:21;;;;;;;0.00;0.00;;;28.10;51.10;;;;;;5071124;28;20176;-59
2023/06/02 12:48:47;;;;;;;0.00;0.00;;;28.30;50.70;;;;;;5071130;28;20184;-60
2023/06/02 12:51:13;;;;;;;0.00;0.00;;;28.50;50.90;;;;;;5070840;28;20172;-60